Welcome to Des Moines Iowa Weather. I am an independent private personal weather station on the Northwest Side of Des Moines, Iowa. Just East of Windsor Heights and just West of Glendale . This site is also mobile friendly.

There are no active watches, warnings or advisories


Visit our other weather sites:

Historical Data

Weather Station Setup



Weather Underground History page Text

Daily Summary for February 19, 2018 Units:  Metric    English   Both
« Previous Day
Next Day »
Daily Weekly Monthly Yearly Custom
  High: Low: Average:
Temperature: 7.1 °C -2.9 °C 2.1 °C
Dew Point: 6.1 °C -3.3 °C 0.7 °C
Humidity: 95 % 70 % 91 %
Wind Speed: 14.5 km/h 0 km/h 2.9 km/h
Wind Gust: 19.3 km/h - -
Wind:- - NNE
Pressure: 1010.7 hPa 1002.9 hPa -
Precipitation: 1.27 mm    
Historical Graphs
 
 
Tabular Data for February 19, 2018
Time Temperature Dew Point Pressure Wind Wind Speed Wind Gust Humidity Rainfall Rate (Hourly)
00:00 6.3 °C 1.1 °C 1005.6 hPa Calm   1.6 km/h 70 % 0 mm
00:15 6.2 °C 1.1 °C 1005.6 hPa Calm   1.6 km/h 71 % 0 mm
00:30 6.1 °C 1.1 °C 1006 hPa Calm     71 % 0 mm
00:45 5.9 °C 1.1 °C 1006 hPa Calm   6.4 km/h 72 % 0 mm
01:00 6 °C 1.1 °C 1005.6 hPa Calm     72 % 0 mm
01:15 6.1 °C 1.1 °C 1005.3 hPa Calm     72 % 0 mm
01:30 5.9 °C 1.1 °C 1005 hPa Calm   3.2 km/h 72 % 0 mm
01:45 5.8 °C 1.1 °C 1005 hPa Calm     73 % 0 mm
02:00 5.9 °C 1.7 °C 1005 hPa Calm   1.6 km/h 73 % 0 mm
02:15 6.2 °C 1.7 °C 1005 hPa Calm   4.8 km/h 73 % 0 mm
02:30 6.5 °C 1.7 °C 1005 hPa Calm   4.8 km/h 72 % 0 mm
02:45 6.7 °C 2.2 °C 1004.6 hPa SSE 1.6 km/h 6.4 km/h 72 % 0 mm
03:08 6.8 °C 2.2 °C 1004.3 hPa Calm   4.8 km/h 72 % 0 mm
03:15 6.8 °C 2.8 °C 1004.6 hPa South 1.6 km/h 9.7 km/h 75 % 0 mm
03:32 6.7 °C 3.3 °C 1004.3 hPa Calm   8 km/h 80 % 0 mm
03:45 6.4 °C 3.3 °C 1004.3 hPa SSE 1.6 km/h 6.4 km/h 82 % 0 mm
04:01 6.3 °C 3.9 °C 1003.9 hPa SW 3.2 km/h 6.4 km/h 85 % 0 mm
04:16 6.1 °C 3.9 °C 1003.9 hPa Calm   4.8 km/h 86 % 0 mm
04:31 5.9 °C 3.9 °C 1003.9 hPa Calm   4.8 km/h 87 % 0 mm
04:46 6 °C 4.4 °C 1003.9 hPa Calm   6.4 km/h 89 % 0 mm
05:01 6.1 °C 4.4 °C 1003.9 hPa Calm   4.8 km/h 90 % 0 mm
05:16 6.2 °C 5 °C 1003.6 hPa East 4.8 km/h 6.4 km/h 91 % 0.25 mm
05:31 6.4 °C 5.6 °C 1003.6 hPa ESE 1.6 km/h 6.4 km/h 92 % 0.25 mm
05:46 6.4 °C 5.6 °C 1003.6 hPa ESE 3.2 km/h 9.7 km/h 93 % 0.25 mm
06:01 6.5 °C 5.6 °C 1003.3 hPa Calm   6.4 km/h 93 % 0.25 mm
06:16 6.6 °C 5.6 °C 1003.3 hPa SE 4.8 km/h 6.4 km/h 94 % 0 mm
06:31 6.9 °C 6.1 °C 1002.9 hPa South 3.2 km/h 11.3 km/h 94 % 0 mm
06:46 6.9 °C 6.1 °C 1003.3 hPa Calm   4.8 km/h 94 % 0.25 mm
07:01 7.1 °C 6.1 °C 1003.6 hPa Calm   3.2 km/h 95 % 0.25 mm
07:16 7 °C 6.1 °C 1003.6 hPa Calm   6.4 km/h 95 % 0.25 mm
07:31 6.7 °C 6.1 °C 1003.9 hPa Calm   4.8 km/h 94 % 0.25 mm
07:46 6.1 °C 5 °C 1003.9 hPa Calm   6.4 km/h 94 % 0 mm
08:01 5.3 °C 4.4 °C 1004.3 hPa Calm   8 km/h 94 % 0.25 mm
08:16 4.3 °C 3.3 °C 1004.3 hPa Calm   6.4 km/h 94 % 0.25 mm
08:31 3.6 °C 2.8 °C 1004.3 hPa Calm   6.4 km/h 94 % 0.51 mm
08:46 3 °C 2.2 °C 1004.6 hPa North 3.2 km/h 9.7 km/h 94 % 0.51 mm
09:01 2.6 °C 1.7 °C 1004.6 hPa North 3.2 km/h 9.7 km/h 94 % 0.25 mm
09:16 2.1 °C 1.1 °C 1004.3 hPa North 4.8 km/h 9.7 km/h 94 % 0.25 mm
09:31 1.8 °C 1.1 °C 1004.6 hPa Calm   9.7 km/h 94 % 0.25 mm
09:46 1.7 °C 1.1 °C 1004.6 hPa North 3.2 km/h 9.7 km/h 94 % 0.25 mm
10:01 1.6 °C 1.1 °C 1004.6 hPa Calm   8 km/h 95 % 0.25 mm
10:16 1.6 °C 1.1 °C 1004.6 hPa North 3.2 km/h 6.4 km/h 95 % 0.25 mm
10:31 1.6 °C 1.1 °C 1004.6 hPa North 6.4 km/h 9.7 km/h 95 % 0 mm
10:46 1.7 °C 1.1 °C 1005 hPa Calm   9.7 km/h 95 % 0 mm
11:01 1.7 °C 1.1 °C 1005 hPa North 4.8 km/h 16.1 km/h 95 % 0 mm
11:16 1.7 °C 1.1 °C 1005.3 hPa North 3.2 km/h 8 km/h 95 % 0 mm
11:31 1.6 °C 1.1 °C 1005.3 hPa North 4.8 km/h 12.9 km/h 95 % 0 mm
11:47 1.6 °C 1.1 °C 1005.3 hPa North 12.9 km/h 14.5 km/h 95 % 0 mm
12:02 1.6 °C 1.1 °C 1005.3 hPa North 3.2 km/h 14.5 km/h 95 % 0 mm
12:17 1.5 °C 1.1 °C 1005.3 hPa North 6.4 km/h 19.3 km/h 95 % 0 mm
12:32 1.4 °C 0.6 °C 1005.3 hPa North 6.4 km/h 14.5 km/h 95 % 0 mm
12:47 1.5 °C 1.1 °C 1005.3 hPa North 8 km/h 16.1 km/h 95 % 0 mm
13:02 1.6 °C 1.1 °C 1005.3 hPa North 9.7 km/h 9.7 km/h 95 % 0 mm
13:17 1.5 °C 1.1 °C 1005.3 hPa North 3.2 km/h 14.5 km/h 95 % 0 mm
13:32 1.6 °C 1.1 °C 1005.3 hPa North 6.4 km/h 9.7 km/h 95 % 0 mm
13:47 1.5 °C 1.1 °C 1005.6 hPa North 8 km/h 16.1 km/h 95 % 0 mm
14:02 1.2 °C 0.6 °C 1006 hPa North 4.8 km/h 16.1 km/h 95 % 0 mm
14:17 1.1 °C 0.6 °C 1006.3 hPa North 3.2 km/h 9.7 km/h 95 % 0 mm
14:34 0.9 °C 0 °C 1006.3 hPa North 8 km/h 16.1 km/h 95 % 0 mm
14:47 0.7 °C 0 °C 1006 hPa North 6.4 km/h 14.5 km/h 95 % 0 mm
15:03 0.6 °C 0 °C 1006.3 hPa North 4.8 km/h 14.5 km/h 95 % 0 mm
15:19 0.5 °C 0 °C 1006.7 hPa North 8 km/h 17.7 km/h 95 % 0 mm
15:32 0.4 °C 0 °C 1006.7 hPa North 3.2 km/h 12.9 km/h 95 % 0 mm
15:47 0.4 °C 0 °C 1007 hPa North 4.8 km/h 6.4 km/h 95 % 0 mm
16:02 0.3 °C -0.6 °C 1007.3 hPa North 6.4 km/h 6.4 km/h 95 % 0 mm
16:17 0.1 °C -0.6 °C 1007.3 hPa North 3.2 km/h 14.5 km/h 95 % 0 mm
16:32 -0.1 °C -0.6 °C 1007.7 hPa North 6.4 km/h 16.1 km/h 95 % 0 mm
16:47 -0.3 °C -1.1 °C 1007.7 hPa North 4.8 km/h 12.9 km/h 95 % 0 mm
17:02 -0.6 °C -1.1 °C 1008 hPa North 3.2 km/h 9.7 km/h 95 % 0 mm
17:17 -0.7 °C -1.1 °C 1008.4 hPa North 4.8 km/h 14.5 km/h 95 % 0 mm
17:32 -0.9 °C -1.7 °C 1008.7 hPa North 3.2 km/h 14.5 km/h 95 % 0 mm
17:47 -1.1 °C -1.7 °C 1008.7 hPa North 6.4 km/h 12.9 km/h 95 % 0 mm
18:02 -1.3 °C -2.2 °C 1008.4 hPa North 4.8 km/h 12.9 km/h 95 % 0 mm
18:17 -1.4 °C -2.2 °C 1008.7 hPa North 1.6 km/h 8 km/h 95 % 0 mm
18:32 -1.7 °C -2.2 °C 1008.7 hPa North 14.5 km/h 16.1 km/h 95 % 0 mm
18:47 -1.8 °C -2.2 °C 1009.4 hPa North 3.2 km/h 8 km/h 95 % 0 mm
19:03 -1.9 °C -2.8 °C 1010 hPa North 1.6 km/h 9.7 km/h 95 % 0 mm
19:18 -1.9 °C -2.8 °C 1009.7 hPa North 1.6 km/h 8 km/h 95 % 0 mm
19:33 -2.1 °C -2.8 °C 1010 hPa North 1.6 km/h 12.9 km/h 95 % 0 mm
19:48 -2.1 °C -2.8 °C 1010 hPa North 3.2 km/h 12.9 km/h 95 % 0 mm
20:03 -2.3 °C -2.8 °C 1010.4 hPa North 3.2 km/h 9.7 km/h 95 % 0 mm
20:18 -2.4 °C -2.8 °C 1010.4 hPa North 1.6 km/h 8 km/h 95 % 0 mm
20:33 -2.5 °C -3.3 °C 1010.4 hPa North 1.6 km/h 8 km/h 95 % 0 mm
20:48 -2.5 °C -3.3 °C 1010 hPa North 3.2 km/h 6.4 km/h 95 % 0 mm
21:03 -2.6 °C -3.3 °C 1010.4 hPa North 1.6 km/h 8 km/h 95 % 0 mm
21:18 -2.6 °C -3.3 °C 1010.4 hPa North 3.2 km/h 6.4 km/h 95 % 0 mm
21:33 -2.6 °C -3.3 °C 1010.4 hPa North 1.6 km/h 8 km/h 95 % 0 mm
21:48 -2.6 °C -3.3 °C 1010.7 hPa North 4.8 km/h 9.7 km/h 95 % 0 mm
22:03 -2.7 °C -3.3 °C 1010.4 hPa North 1.6 km/h 6.4 km/h 95 % 0 mm
22:18 -2.7 °C -3.3 °C 1010.7 hPa Calm   4.8 km/h 95 % 0 mm
22:33 -2.8 °C -3.3 °C 1010.7 hPa North 1.6 km/h 4.8 km/h 95 % 0 mm
22:48 -2.9 °C -3.3 °C 1009.7 hPa North 6.4 km/h 6.4 km/h 95 % 0 mm
23:03 -2.9 °C -3.3 °C 1009.7 hPa North 4.8 km/h 4.8 km/h 95 % 0 mm
23:18 -2.9 °C -3.3 °C 1010.7 hPa Calm   1.6 km/h 95 % 0 mm
23:33 -2.9 °C -3.3 °C 1009.7 hPa Calm   1.6 km/h 95 % 0 mm
23:48 -2.9 °C -3.3 °C 1009.7 hPa Calm   4.8 km/h 95 % 0 mm
Des Moines Weather and Climate
Compliments of Weather Underground - 3 mb

Script developed by  Jim McMurry - jmcmurry@mwt.net Adapted for the template by  Wim van der Kuil - Leuven-Template.eu

You find our weather info also at:

Weather Underground

Equipment we use:

Weather-station
Davis VP2 Plus

Weather-program
Davis Weatherlink.Com

Weather-server
iMac (Retina 4K, 21.5-inch, Late 2015)

Provider
Hostmonster.com

Davis VP2 Plus

Davis Weatherlink.Com

iMac (Retina 4K, 21.5-inch, Late 2015)

Hostmonster.com